sensor_id;sensor_type;location;lat;lon;timestamp;pressure;altitude;pressure_sealevel;temperature;humidity
7297;BME280;40758;54.038;11.684;2023-04-20T00:00:28;102207.22;;;5.48;57.41
7297;BME280;40758;54.038;11.684;2023-04-20T00:02:56;102200.41;;;5.44;57.56
7297;BME280;40758;54.038;11.684;2023-04-20T00:05:26;102185.44;;;5.42;57.70
7297;BME280;40758;54.038;11.684;2023-04-20T00:07:55;102193.91;;;5.47;58.21
7297;BME280;40758;54.038;11.684;2023-04-20T00:10:21;102185.81;;;5.47;58.34
7297;BME280;40758;54.038;11.684;2023-04-20T00:12:48;102192.03;;;5.47;58.25
7297;BME280;40758;54.038;11.684;2023-04-20T00:15:14;102187.34;;;5.49;58.75
7297;BME280;40758;54.038;11.684;2023-04-20T00:17:41;102179.25;;;5.49;58.98
7297;BME280;40758;54.038;11.684;2023-04-20T00:20:09;102177.91;;;5.45;59.03
7297;BME280;40758;54.038;11.684;2023-04-20T00:22:37;102167.88;;;5.38;59.01
7297;BME280;40758;54.038;11.684;2023-04-20T00:25:04;102179.59;;;5.46;59.47
7297;BME280;40758;54.038;11.684;2023-04-20T00:27:32;102172.50;;;5.45;59.67
7297;BME280;40758;54.038;11.684;2023-04-20T00:29:59;102184.97;;;5.46;59.63
7297;BME280;40758;54.038;11.684;2023-04-20T00:32:26;102174.66;;;5.42;59.96
7297;BME280;40758;54.038;11.684;2023-04-20T00:34:53;102179.03;;;5.43;60.34
7297;BME280;40758;54.038;11.684;2023-04-20T00:37:20;102166.41;;;5.43;60.47
7297;BME280;40758;54.038;11.684;2023-04-20T00:39:47;102170.78;;;5.44;60.64
7297;BME280;40758;54.038;11.684;2023-04-20T00:42:13;102170.34;;;5.49;60.50
7297;BME280;40758;54.038;11.684;2023-04-20T00:44:40;102176.44;;;5.51;60.70
7297;BME280;40758;54.038;11.684;2023-04-20T00:47:07;102173.41;;;5.54;61.05
7297;BME280;40758;54.038;11.684;2023-04-20T00:49:34;102173.59;;;5.52;61.07
7297;BME280;40758;54.038;11.684;2023-04-20T00:52:01;102171.72;;;5.53;61.12
7297;BME280;40758;54.038;11.684;2023-04-20T00:54:28;102170.28;;;5.58;60.77
7297;BME280;40758;54.038;11.684;2023-04-20T00:56:55;102178.03;;;5.61;61.18
7297;BME280;40758;54.038;11.684;2023-04-20T00:59:23;102172.34;;;5.65;61.58
7297;BME280;40758;54.038;11.684;2023-04-20T01:01:50;102162.88;;;5.60;61.83
7297;BME280;40758;54.038;11.684;2023-04-20T01:04:17;102162.47;;;5.55;62.27
7297;BME280;40758;54.038;11.684;2023-04-20T01:06:44;102171.91;;;5.51;61.75
7297;BME280;40758;54.038;11.684;2023-04-20T01:09:11;102157.19;;;5.46;62.11
7297;BME280;40758;54.038;11.684;2023-04-20T01:11:44;102162.56;;;5.46;62.28
7297;BME280;40758;54.038;11.684;2023-04-20T01:14:11;102161.72;;;5.45;62.55
7297;BME280;40758;54.038;11.684;2023-04-20T01:16:38;102160.34;;;5.41;62.58
7297;BME280;40758;54.038;11.684;2023-04-20T01:19:05;102168.56;;;5.40;62.52
7297;BME280;40758;54.038;11.684;2023-04-20T01:21:32;102150.16;;;5.35;62.59
7297;BME280;40758;54.038;11.684;2023-04-20T01:23:58;102144.56;;;5.28;62.61
7297;BME280;40758;54.038;11.684;2023-04-20T01:26:26;102143.44;;;5.21;62.84
7297;BME280;40758;54.038;11.684;2023-04-20T01:28:54;102142.06;;;5.17;62.92
7297;BME280;40758;54.038;11.684;2023-04-20T01:31:21;102152.00;;;5.17;63.23
7297;BME280;40758;54.038;11.684;2023-04-20T01:33:48;102145.50;;;5.10;63.26
7297;BME280;40758;54.038;11.684;2023-04-20T01:36:15;102123.50;;;4.96;63.44
7297;BME280;40758;54.038;11.684;2023-04-20T01:38:44;102135.94;;;4.97;63.76
7297;BME280;40758;54.038;11.684;2023-04-20T01:41:15;102131.56;;;4.96;64.02
7297;BME280;40758;54.038;11.684;2023-04-20T01:43:42;102130.47;;;4.89;64.09
7297;BME280;40758;54.038;11.684;2023-04-20T01:46:09;102130.63;;;4.88;64.37
7297;BME280;40758;54.038;11.684;2023-04-20T01:48:36;102128.78;;;4.88;64.26
7297;BME280;40758;54.038;11.684;2023-04-20T01:51:02;102134.88;;;4.90;64.97
7297;BME280;40758;54.038;11.684;2023-04-20T01:53:29;102126.94;;;4.89;64.74
7297;BME280;40758;54.038;11.684;2023-04-20T01:55:58;102126.78;;;4.90;65.52
7297;BME280;40758;54.038;11.684;2023-04-20T01:58:25;102125.25;;;4.88;64.90
7297;BME280;40758;54.038;11.684;2023-04-20T02:00:51;102128.06;;;4.86;65.11
7297;BME280;40758;54.038;11.684;2023-04-20T02:03:18;102119.72;;;4.89;65.52
7297;BME280;40758;54.038;11.684;2023-04-20T02:05:45;102126.34;;;4.95;65.17
7297;BME280;40758;54.038;11.684;2023-04-20T02:08:14;102122.34;;;4.99;65.29
7297;BME280;40758;54.038;11.684;2023-04-20T02:10:44;102104.25;;;4.91;65.23
7297;BME280;40758;54.038;11.684;2023-04-20T02:13:11;102113.72;;;4.95;65.14
7297;BME280;40758;54.038;11.684;2023-04-20T02:15:42;102110.44;;;5.01;65.18
7297;BME280;40758;54.038;11.684;2023-04-20T02:18:09;102103.03;;;5.03;65.15
7297;BME280;40758;54.038;11.684;2023-04-20T02:20:36;102110.81;;;5.06;65.29
7297;BME280;40758;54.038;11.684;2023-04-20T02:23:02;102100.75;;;5.08;65.30
7297;BME280;40758;54.038;11.684;2023-04-20T02:25:29;102109.22;;;5.14;65.56
7297;BME280;40758;54.038;11.684;2023-04-20T02:27:56;102105.50;;;5.15;66.18
7297;BME280;40758;54.038;11.684;2023-04-20T02:30:23;102110.59;;;5.18;66.03
7297;BME280;40758;54.038;11.684;2023-04-20T02:32:50;102115.38;;;5.24;66.12
7297;BME280;40758;54.038;11.684;2023-04-20T02:35:17;102107.81;;;5.27;66.03
7297;BME280;40758;54.038;11.684;2023-04-20T02:37:45;102100.28;;;5.31;66.36
7297;BME280;40758;54.038;11.684;2023-04-20T02:40:14;102093.06;;;5.31;66.12
7297;BME280;40758;54.038;11.684;2023-04-20T02:42:41;102107.47;;;5.40;66.27
7297;BME280;40758;54.038;11.684;2023-04-20T02:45:12;102091.59;;;5.37;66.68
7297;BME280;40758;54.038;11.684;2023-04-20T02:47:39;102106.47;;;5.41;66.26
7297;BME280;40758;54.038;11.684;2023-04-20T02:50:07;102095.69;;;5.41;66.58
7297;BME280;40758;54.038;11.684;2023-04-20T02:52:34;102103.75;;;5.41;66.50
7297;BME280;40758;54.038;11.684;2023-04-20T02:55:01;102109.84;;;5.43;66.46
7297;BME280;40758;54.038;11.684;2023-04-20T02:57:28;102101.47;;;5.46;66.68
7297;BME280;40758;54.038;11.684;2023-04-20T02:59:55;102107.53;;;5.48;66.79
7297;BME280;40758;54.038;11.684;2023-04-20T03:02:22;102095.34;;;5.44;66.40
7297;BME280;40758;54.038;11.684;2023-04-20T03:04:49;102097.91;;;5.46;67.09
7297;BME280;40758;54.038;11.684;2023-04-20T03:07:16;102088.28;;;5.43;67.05
7297;BME280;40758;54.038;11.684;2023-04-20T03:09:43;102080.31;;;5.33;67.51
7297;BME280;40758;54.038;11.684;2023-04-20T03:12:10;102085.75;;;5.42;67.27
7297;BME280;40758;54.038;11.684;2023-04-20T03:14:38;102089.28;;;5.42;67.06
7297;BME280;40758;54.038;11.684;2023-04-20T03:17:04;102101.06;;;5.41;67.27
7297;BME280;40758;54.038;11.684;2023-04-20T03:19:32;102093.59;;;5.35;67.29
7297;BME280;40758;54.038;11.684;2023-04-20T03:21:58;102097.81;;;5.38;67.76
7297;BME280;40758;54.038;11.684;2023-04-20T03:24:25;102092.44;;;5.38;67.66
7297;BME280;40758;54.038;11.684;2023-04-20T03:26:52;102098.22;;;5.43;67.84
7297;BME280;40758;54.038;11.684;2023-04-20T03:29:19;102092.16;;;5.41;68.10
7297;BME280;40758;54.038;11.684;2023-04-20T03:31:46;102089.28;;;5.42;68.20
7297;BME280;40758;54.038;11.684;2023-04-20T03:34:12;102084.75;;;5.43;67.90
7297;BME280;40758;54.038;11.684;2023-04-20T03:36:39;102077.66;;;5.42;67.73
7297;BME280;40758;54.038;11.684;2023-04-20T03:39:06;102083.59;;;5.45;68.32
7297;BME280;40758;54.038;11.684;2023-04-20T03:41:33;102081.03;;;5.44;67.80
7297;BME280;40758;54.038;11.684;2023-04-20T03:44:00;102086.59;;;5.42;68.31
7297;BME280;40758;54.038;11.684;2023-04-20T03:46:26;102086.88;;;5.39;68.96
7297;BME280;40758;54.038;11.684;2023-04-20T03:48:53;102092.28;;;5.39;68.98
7297;BME280;40758;54.038;11.684;2023-04-20T03:51:20;102085.38;;;5.37;68.12
7297;BME280;40758;54.038;11.684;2023-04-20T03:53:47;102088.22;;;5.35;68.20
7297;BME280;40758;54.038;11.684;2023-04-20T03:56:14;102088.06;;;5.37;68.44
7297;BME280;40758;54.038;11.684;2023-04-20T03:58:43;102085.69;;;5.33;68.39
7297;BME280;40758;54.038;11.684;2023-04-20T04:01:10;102086.53;;;5.34;68.68
7297;BME280;40758;54.038;11.684;2023-04-20T04:03:39;102082.84;;;5.35;69.17
7297;BME280;40758;54.038;11.684;2023-04-20T04:06:08;102088.06;;;5.37;69.28
7297;BME280;40758;54.038;11.684;2023-04-20T04:08:34;102075.88;;;5.32;69.15
7297;BME280;40758;54.038;11.684;2023-04-20T04:11:01;102079.13;;;5.36;69.58
7297;BME280;40758;54.038;11.684;2023-04-20T04:13:30;102089.44;;;5.41;69.65
7297;BME280;40758;54.038;11.684;2023-04-20T04:15:59;102080.19;;;5.43;69.38
7297;BME280;40758;54.038;11.684;2023-04-20T04:18:26;102084.91;;;5.41;69.54
7297;BME280;40758;54.038;11.684;2023-04-20T04:20:57;102087.44;;;5.43;69.45
7297;BME280;40758;54.038;11.684;2023-04-20T04:23:24;102085.59;;;5.43;69.86
7297;BME280;40758;54.038;11.684;2023-04-20T04:25:51;102096.53;;;5.42;69.73
7297;BME280;40758;54.038;11.684;2023-04-20T04:28:18;102103.31;;;5.46;70.31
7297;BME280;40758;54.038;11.684;2023-04-20T04:30:47;102089.97;;;5.44;69.51
7297;BME280;40758;54.038;11.684;2023-04-20T04:33:14;102094.22;;;5.47;70.45
7297;BME280;40758;54.038;11.684;2023-04-20T04:35:44;102079.69;;;5.40;70.44
7297;BME280;40758;54.038;11.684;2023-04-20T04:38:15;102088.66;;;5.48;70.62
7297;BME280;40758;54.038;11.684;2023-04-20T04:40:44;102087.66;;;5.49;70.29
7297;BME280;40758;54.038;11.684;2023-04-20T04:43:11;102087.38;;;5.52;70.26
7297;BME280;40758;54.038;11.684;2023-04-20T04:45:40;102090.75;;;5.54;70.45
7297;BME280;40758;54.038;11.684;2023-04-20T04:48:10;102080.28;;;5.51;70.75
7297;BME280;40758;54.038;11.684;2023-04-20T04:50:40;102083.88;;;5.60;70.64
7297;BME280;40758;54.038;11.684;2023-04-20T04:53:07;102083.03;;;5.59;70.88
7297;BME280;40758;54.038;11.684;2023-04-20T04:55:33;102081.03;;;5.61;70.84
7297;BME280;40758;54.038;11.684;2023-04-20T04:58:00;102083.59;;;5.63;71.06
7297;BME280;40758;54.038;11.684;2023-04-20T05:00:28;102078.03;;;5.65;70.69
7297;BME280;40758;54.038;11.684;2023-04-20T05:02:54;102087.16;;;5.72;70.92
7297;BME280;40758;54.038;11.684;2023-04-20T05:05:21;102087.16;;;5.72;70.85
7297;BME280;40758;54.038;11.684;2023-04-20T05:07:48;102082.78;;;5.71;70.88
7297;BME280;40758;54.038;11.684;2023-04-20T05:10:15;102091.94;;;5.78;70.67
7297;BME280;40758;54.038;11.684;2023-04-20T05:12:45;102096.69;;;5.84;70.94
7297;BME280;40758;54.038;11.684;2023-04-20T05:15:12;102094.53;;;5.87;71.15
7297;BME280;40758;54.038;11.684;2023-04-20T05:17:39;102103.47;;;5.88;70.65
7297;BME280;40758;54.038;11.684;2023-04-20T05:20:07;102100.34;;;5.93;70.90
7297;BME280;40758;54.038;11.684;2023-04-20T05:22:36;102089.16;;;5.87;70.89
7297;BME280;40758;54.038;11.684;2023-04-20T05:25:08;102105.88;;;5.91;71.18
7297;BME280;40758;54.038;11.684;2023-04-20T05:27:38;102104.47;;;5.87;71.04
7297;BME280;40758;54.038;11.684;2023-04-20T05:30:05;102107.19;;;5.87;71.10
7297;BME280;40758;54.038;11.684;2023-04-20T05:32:47;102110.88;;;5.86;71.42
7297;BME280;40758;54.038;11.684;2023-04-20T05:35:17;102114.56;;;5.85;71.50
7297;BME280;40758;54.038;11.684;2023-04-20T05:37:44;102116.94;;;5.88;71.94
7297;BME280;40758;54.038;11.684;2023-04-20T05:40:13;102118.38;;;5.92;71.67
7297;BME280;40758;54.038;11.684;2023-04-20T05:42:41;102109.66;;;5.98;71.86
7297;BME280;40758;54.038;11.684;2023-04-20T05:45:09;102124.03;;;6.07;72.38
7297;BME280;40758;54.038;11.684;2023-04-20T05:47:36;102110.53;;;6.07;71.73
7297;BME280;40758;54.038;11.684;2023-04-20T05:50:04;102121.16;;;6.08;71.43
7297;BME280;40758;54.038;11.684;2023-04-20T05:52:31;102115.84;;;6.17;72.12
7297;BME280;40758;54.038;11.684;2023-04-20T05:54:58;102119.59;;;6.24;72.05
7297;BME280;40758;54.038;11.684;2023-04-20T05:57:26;102120.25;;;6.26;71.64
7297;BME280;40758;54.038;11.684;2023-04-20T05:59:53;102123.50;;;6.29;71.65
7297;BME280;40758;54.038;11.684;2023-04-20T06:02:21;102124.03;;;6.33;71.44
7297;BME280;40758;54.038;11.684;2023-04-20T06:04:48;102129.09;;;6.36;71.15
7297;BME280;40758;54.038;11.684;2023-04-20T06:07:15;102131.50;;;6.39;70.87
7297;BME280;40758;54.038;11.684;2023-04-20T06:09:45;102134.84;;;6.41;71.25
7297;BME280;40758;54.038;11.684;2023-04-20T06:12:15;102129.28;;;6.43;70.85
7297;BME280;40758;54.038;11.684;2023-04-20T06:14:42;102131.22;;;6.50;70.75
7297;BME280;40758;54.038;11.684;2023-04-20T06:17:10;102116.72;;;6.59;71.00
7297;BME280;40758;54.038;11.684;2023-04-20T06:19:36;102106.94;;;6.50;71.22
7297;BME280;40758;54.038;11.684;2023-04-20T06:22:07;102118.41;;;6.52;70.66
7297;BME280;40758;54.038;11.684;2023-04-20T06:24:34;102128.88;;;6.55;71.02
7297;BME280;40758;54.038;11.684;2023-04-20T06:27:01;102120.81;;;6.63;70.38
7297;BME280;40758;54.038;11.684;2023-04-20T06:29:28;102119.84;;;6.73;70.72
7297;BME280;40758;54.038;11.684;2023-04-20T06:31:55;102126.09;;;6.81;70.58
7297;BME280;40758;54.038;11.684;2023-04-20T06:34:22;102120.03;;;6.79;70.30
7297;BME280;40758;54.038;11.684;2023-04-20T06:36:49;102122.56;;;6.81;70.61
7297;BME280;40758;54.038;11.684;2023-04-20T06:39:16;102112.09;;;6.78;70.40
7297;BME280;40758;54.038;11.684;2023-04-20T06:41:43;102118.50;;;6.77;70.92
7297;BME280;40758;54.038;11.684;2023-04-20T06:44:10;102090.44;;;6.61;70.38
7297;BME280;40758;54.038;11.684;2023-04-20T06:46:39;102092.44;;;6.59;70.13
7297;BME280;40758;54.038;11.684;2023-04-20T06:49:15;102114.44;;;6.73;70.77
7297;BME280;40758;54.038;11.684;2023-04-20T06:51:48;102115.44;;;6.72;71.03
7297;BME280;40758;54.038;11.684;2023-04-20T06:54:34;102126.41;;;6.70;70.72
7297;BME280;40758;54.038;11.684;2023-04-20T06:57:05;102095.28;;;6.50;70.78
7297;BME280;40758;54.038;11.684;2023-04-20T06:59:32;102119.63;;;6.66;70.69
7297;BME280;40758;54.038;11.684;2023-04-20T07:01:59;102125.38;;;6.63;71.40
7297;BME280;40758;54.038;11.684;2023-04-20T07:04:27;102128.91;;;6.63;71.35
7297;BME280;40758;54.038;11.684;2023-04-20T07:06:55;102131.78;;;6.62;71.61
7297;BME280;40758;54.038;11.684;2023-04-20T07:09:24;102126.97;;;6.48;71.79
7297;BME280;40758;54.038;11.684;2023-04-20T07:11:52;102139.16;;;6.60;71.26
7297;BME280;40758;54.038;11.684;2023-04-20T07:14:19;102139.03;;;6.61;71.75
7297;BME280;40758;54.038;11.684;2023-04-20T07:16:54;102151.34;;;6.64;71.32
7297;BME280;40758;54.038;11.684;2023-04-20T07:19:21;102150.81;;;6.60;71.70
7297;BME280;40758;54.038;11.684;2023-04-20T07:21:49;102147.25;;;6.60;71.85
7297;BME280;40758;54.038;11.684;2023-04-20T07:24:16;102132.25;;;6.57;72.56
7297;BME280;40758;54.038;11.684;2023-04-20T07:26:46;102139.53;;;6.65;71.73
7297;BME280;40758;54.038;11.684;2023-04-20T07:29:15;102141.06;;;6.68;72.26
7297;BME280;40758;54.038;11.684;2023-04-20T07:31:43;102149.53;;;6.73;72.25
7297;BME280;40758;54.038;11.684;2023-04-20T07:34:10;102153.22;;;6.72;72.17
7297;BME280;40758;54.038;11.684;2023-04-20T07:36:40;102157.63;;;6.73;72.38
7297;BME280;40758;54.038;11.684;2023-04-20T07:39:06;102164.03;;;6.72;72.24
7297;BME280;40758;54.038;11.684;2023-04-20T07:41:40;102168.09;;;6.76;72.49
7297;BME280;40758;54.038;11.684;2023-04-20T07:44:06;102167.81;;;6.87;72.28
7297;BME280;40758;54.038;11.684;2023-04-20T07:46:38;102148.59;;;6.90;72.85
7297;BME280;40758;54.038;11.684;2023-04-20T07:49:05;102147.97;;;7.04;71.87
7297;BME280;40758;54.038;11.684;2023-04-20T07:51:43;102149.53;;;7.23;72.16
7297;BME280;40758;54.038;11.684;2023-04-20T07:54:10;102158.16;;;7.35;71.97
7297;BME280;40758;54.038;11.684;2023-04-20T07:56:39;102172.56;;;7.52;71.51
7297;BME280;40758;54.038;11.684;2023-04-20T07:59:07;102159.25;;;7.74;71.65
7297;BME280;40758;54.038;11.684;2023-04-20T08:01:35;102171.06;;;7.98;71.53
7297;BME280;40758;54.038;11.684;2023-04-20T08:04:02;102168.34;;;8.31;70.57
7297;BME280;40758;54.038;11.684;2023-04-20T08:06:29;102157.63;;;8.70;70.80
7297;BME280;40758;54.038;11.684;2023-04-20T08:08:57;102159.06;;;9.20;70.66
7297;BME280;40758;54.038;11.684;2023-04-20T08:11:28;102170.94;;;9.73;69.06
7297;BME280;40758;54.038;11.684;2023-04-20T08:13:55;102172.34;;;9.92;67.52
7297;BME280;40758;54.038;11.684;2023-04-20T08:16:23;102166.97;;;9.83;66.12
7297;BME280;40758;54.038;11.684;2023-04-20T08:18:51;102171.94;;;9.95;66.02
7297;BME280;40758;54.038;11.684;2023-04-20T08:21:19;102176.81;;;10.22;65.79
7297;BME280;40758;54.038;11.684;2023-04-20T08:23:51;102179.41;;;10.38;65.26
7297;BME280;40758;54.038;11.684;2023-04-20T08:26:18;102178.28;;;10.48;64.78
7297;BME280;40758;54.038;11.684;2023-04-20T08:28:45;102184.53;;;10.33;63.88
7297;BME280;40758;54.038;11.684;2023-04-20T08:31:13;102176.75;;;10.30;63.78
7297;BME280;40758;54.038;11.684;2023-04-20T08:33:41;102194.19;;;10.13;63.76
7297;BME280;40758;54.038;11.684;2023-04-20T08:36:08;102184.44;;;9.81;63.86
7297;BME280;40758;54.038;11.684;2023-04-20T08:38:36;102187.75;;;9.68;64.86
7297;BME280;40758;54.038;11.684;2023-04-20T08:41:03;102175.69;;;9.94;65.21
7297;BME280;40758;54.038;11.684;2023-04-20T08:43:30;102179.78;;;9.90;64.63
7297;BME280;40758;54.038;11.684;2023-04-20T08:45:59;102172.50;;;9.90;65.57
7297;BME280;40758;54.038;11.684;2023-04-20T08:48:33;102191.59;;;9.97;64.80
7297;BME280;40758;54.038;11.684;2023-04-20T08:51:05;102180.75;;;9.97;65.16
7297;BME280;40758;54.038;11.684;2023-04-20T08:53:32;102187.38;;;10.17;64.89
7297;BME280;40758;54.038;11.684;2023-04-20T08:56:00;102180.25;;;10.16;65.09
7297;BME280;40758;54.038;11.684;2023-04-20T08:58:29;102184.53;;;10.33;64.32
7297;BME280;40758;54.038;11.684;2023-04-20T09:00:59;102179.59;;;10.52;65.01
7297;BME280;40758;54.038;11.684;2023-04-20T09:03:40;102182.78;;;10.85;64.89
7297;BME280;40758;54.038;11.684;2023-04-20T09:06:16;102176.56;;;11.21;63.46
7297;BME280;40758;54.038;11.684;2023-04-20T09:08:44;102186.59;;;11.78;63.74
7297;BME280;40758;54.038;11.684;2023-04-20T09:11:22;102182.44;;;12.87;62.80
7297;BME280;40758;54.038;11.684;2023-04-20T09:14:01;102172.88;;;13.52;60.12
7297;BME280;40758;54.038;11.684;2023-04-20T09:16:28;102171.44;;;13.96;58.74
7297;BME280;40758;54.038;11.684;2023-04-20T09:18:55;102171.88;;;13.93;57.32
7297;BME280;40758;54.038;11.684;2023-04-20T09:21:25;102179.88;;;14.28;56.65
7297;BME280;40758;54.038;11.684;2023-04-20T09:24:02;102184.47;;;14.60;56.49
7297;BME280;40758;54.038;11.684;2023-04-20T09:26:33;102173.56;;;14.47;55.07
7297;BME280;40758;54.038;11.684;2023-04-20T09:29:01;102179.66;;;14.16;54.89
7297;BME280;40758;54.038;11.684;2023-04-20T09:31:28;102181.13;;;14.19;55.49
7297;BME280;40758;54.038;11.684;2023-04-20T09:33:59;102165.38;;;14.14;55.51
7297;BME280;40758;54.038;11.684;2023-04-20T09:36:46;102156.31;;;14.53;55.92
7297;BME280;40758;54.038;11.684;2023-04-20T09:39:17;102156.63;;;14.90;55.45
7297;BME280;40758;54.038;11.684;2023-04-20T09:41:45;102160.09;;;14.46;53.05
7297;BME280;40758;54.038;11.684;2023-04-20T09:44:16;102158.41;;;14.45;54.49
7297;BME280;40758;54.038;11.684;2023-04-20T09:46:44;102170.84;;;14.34;54.36
7297;BME280;40758;54.038;11.684;2023-04-20T09:49:14;102162.63;;;14.54;53.70
7297;BME280;40758;54.038;11.684;2023-04-20T09:51:47;102159.50;;;14.50;54.44
7297;BME280;40758;54.038;11.684;2023-04-20T09:54:14;102159.13;;;15.05;55.11
7297;BME280;40758;54.038;11.684;2023-04-20T09:56:44;102168.41;;;14.97;53.05
7297;BME280;40758;54.038;11.684;2023-04-20T09:59:11;102174.22;;;15.65;53.83
7297;BME280;40758;54.038;11.684;2023-04-20T10:01:39;102164.06;;;15.98;53.35
7297;BME280;40758;54.038;11.684;2023-04-20T10:04:07;102172.94;;;15.93;51.82
7297;BME280;40758;54.038;11.684;2023-04-20T10:06:37;102159.78;;;16.08;52.17
7297;BME280;40758;54.038;11.684;2023-04-20T10:09:06;102172.91;;;16.25;50.24
7297;BME280;40758;54.038;11.684;2023-04-20T10:11:34;102171.47;;;16.40;50.54
7297;BME280;40758;54.038;11.684;2023-04-20T10:14:24;102164.13;;;16.16;49.42
7297;BME280;40758;54.038;11.684;2023-04-20T10:17:01;102166.78;;;15.73;49.18
7297;BME280;40758;54.038;11.684;2023-04-20T10:19:38;102155.78;;;15.03;49.58
7297;BME280;40758;54.038;11.684;2023-04-20T10:22:06;102160.22;;;14.97;51.27
7297;BME280;40758;54.038;11.684;2023-04-20T10:24:35;102159.63;;;14.75;51.73
7297;BME280;40758;54.038;11.684;2023-04-20T10:27:17;102152.72;;;14.73;52.34
7297;BME280;40758;54.038;11.684;2023-04-20T10:29:45;102148.72;;;14.69;52.44
7297;BME280;40758;54.038;11.684;2023-04-20T10:32:25;102162.44;;;14.55;52.98
7297;BME280;40758;54.038;11.684;2023-04-20T10:35:04;102153.72;;;14.85;54.04
7297;BME280;40758;54.038;11.684;2023-04-20T10:37:32;102155.41;;;14.86;52.57
7297;BME280;40758;54.038;11.684;2023-04-20T10:39:59;102152.72;;;14.73;52.18
7297;BME280;40758;54.038;11.684;2023-04-20T10:42:26;102155.69;;;14.51;52.31
7297;BME280;40758;54.038;11.684;2023-04-20T10:44:55;102157.59;;;14.57;52.34
7297;BME280;40758;54.038;11.684;2023-04-20T10:47:30;102158.84;;;14.55;53.05
7297;BME280;40758;54.038;11.684;2023-04-20T10:50:06;102160.53;;;14.62;53.47
7297;BME280;40758;54.038;11.684;2023-04-20T10:52:35;102160.13;;;14.52;53.51
7297;BME280;40758;54.038;11.684;2023-04-20T10:55:03;102148.56;;;14.57;53.31
7297;BME280;40758;54.038;11.684;2023-04-20T10:57:30;102145.56;;;14.65;53.35
7297;BME280;40758;54.038;11.684;2023-04-20T10:59:57;102152.53;;;14.48;52.81
7297;BME280;40758;54.038;11.684;2023-04-20T11:02:24;102148.34;;;14.25;53.22
7297;BME280;40758;54.038;11.684;2023-04-20T11:04:51;102160.53;;;14.29;53.68
7297;BME280;40758;54.038;11.684;2023-04-20T11:07:18;102159.28;;;14.12;53.42
7297;BME280;40758;54.038;11.684;2023-04-20T11:09:53;102160.97;;;13.80;53.88
7297;BME280;40758;54.038;11.684;2023-04-20T11:12:21;102164.31;;;13.75;54.38
7297;BME280;40758;54.038;11.684;2023-04-20T11:14:54;102161.75;;;13.74;55.00
7297;BME280;40758;54.038;11.684;2023-04-20T11:17:33;102165.94;;;13.56;55.12
7297;BME280;40758;54.038;11.684;2023-04-20T11:20:10;102149.53;;;13.43;55.66
7297;BME280;40758;54.038;11.684;2023-04-20T11:22:54;102158.72;;;13.22;55.77
7297;BME280;40758;54.038;11.684;2023-04-20T11:25:23;102162.75;;;12.98;56.25
7297;BME280;40758;54.038;11.684;2023-04-20T11:27:50;102157.81;;;12.74;56.65
7297;BME280;40758;54.038;11.684;2023-04-20T11:30:16;102164.31;;;12.73;57.56
7297;BME280;40758;54.038;11.684;2023-04-20T11:32:52;102167.78;;;12.88;57.84
7297;BME280;40758;54.038;11.684;2023-04-20T11:35:19;102157.09;;;12.93;57.79
7297;BME280;40758;54.038;11.684;2023-04-20T11:37:48;102160.28;;;13.03;57.75
7297;BME280;40758;54.038;11.684;2023-04-20T11:40:17;102153.09;;;12.89;57.47
7297;BME280;40758;54.038;11.684;2023-04-20T11:42:44;102150.53;;;12.81;57.88
7297;BME280;40758;54.038;11.684;2023-04-20T11:45:13;102147.97;;;12.73;57.61
7297;BME280;40758;54.038;11.684;2023-04-20T11:47:39;102151.72;;;13.07;58.70
7297;BME280;40758;54.038;11.684;2023-04-20T11:50:07;102141.94;;;13.32;58.04
7297;BME280;40758;54.038;11.684;2023-04-20T11:52:36;102138.81;;;13.35;57.33
7297;BME280;40758;54.038;11.684;2023-04-20T11:55:04;102146.22;;;13.54;57.79
7297;BME280;40758;54.038;11.684;2023-04-20T11:57:31;102134.84;;;13.38;55.84
7297;BME280;40758;54.038;11.684;2023-04-20T11:59:58;102144.44;;;13.27;57.06
7297;BME280;40758;54.038;11.684;2023-04-20T12:02:26;102138.16;;;13.33;56.63
7297;BME280;40758;54.038;11.684;2023-04-20T12:04:53;102131.03;;;13.25;57.05
7297;BME280;40758;54.038;11.684;2023-04-20T12:07:21;102141.13;;;13.38;57.74
7297;BME280;40758;54.038;11.684;2023-04-20T12:09:47;102139.47;;;13.44;57.09
7297;BME280;40758;54.038;11.684;2023-04-20T12:12:14;102134.66;;;13.52;57.50
7297;BME280;40758;54.038;11.684;2023-04-20T12:14:41;102122.31;;;13.76;57.42
7297;BME280;40758;54.038;11.684;2023-04-20T12:17:08;102123.16;;;13.77;55.86
7297;BME280;40758;54.038;11.684;2023-04-20T12:19:35;102125.03;;;13.96;56.10
7297;BME280;40758;54.038;11.684;2023-04-20T12:22:02;102127.34;;;14.06;56.07
7297;BME280;40758;54.038;11.684;2023-04-20T12:24:28;102118.50;;;14.24;55.88
7297;BME280;40758;54.038;11.684;2023-04-20T12:26:55;102121.41;;;14.42;55.41
7297;BME280;40758;54.038;11.684;2023-04-20T12:29:23;102122.00;;;14.71;55.55
7297;BME280;40758;54.038;11.684;2023-04-20T12:31:50;102115.09;;;14.55;54.47
7297;BME280;40758;54.038;11.684;2023-04-20T12:34:16;102115.09;;;14.61;55.01
7297;BME280;40758;54.038;11.684;2023-04-20T12:36:44;102112.53;;;14.67;53.71
7297;BME280;40758;54.038;11.684;2023-04-20T12:39:10;102120.44;;;14.95;53.50
7297;BME280;40758;54.038;11.684;2023-04-20T12:41:40;102110.44;;;14.75;53.19
7297;BME280;40758;54.038;11.684;2023-04-20T12:44:06;102117.81;;;15.20;54.45
7297;BME280;40758;54.038;11.684;2023-04-20T12:46:36;102112.47;;;14.93;53.15
7297;BME280;40758;54.038;11.684;2023-04-20T12:49:03;102110.81;;;14.85;52.86
7297;BME280;40758;54.038;11.684;2023-04-20T12:51:30;102102.84;;;14.77;53.26
7297;BME280;40758;54.038;11.684;2023-04-20T12:53:57;102109.50;;;14.95;53.47
7297;BME280;40758;54.038;11.684;2023-04-20T12:56:24;102105.56;;;15.22;53.58
7297;BME280;40758;54.038;11.684;2023-04-20T12:58:51;102102.06;;;15.47;53.15
7297;BME280;40758;54.038;11.684;2023-04-20T13:01:18;102093.75;;;15.28;52.69
7297;BME280;40758;54.038;11.684;2023-04-20T13:03:50;102094.59;;;15.29;53.07